sensor_id;sensor_type;location;lat;lon;timestamp;P1;durP1;ratioP1;P2;durP2;ratioP2
55931;SDS011;41837;55.700;37.984;2023-08-20T00:01:23;28.42;;;18.60;;
55931;SDS011;41837;55.700;37.984;2023-08-20T00:03:56;28.57;;;19.07;;
55931;SDS011;41837;55.700;37.984;2023-08-20T00:06:23;27.25;;;18.75;;
55931;SDS011;41837;55.700;37.984;2023-08-20T00:08:50;30.17;;;18.92;;
55931;SDS011;41837;55.700;37.984;2023-08-20T00:11:16;30.00;;;19.20;;
55931;SDS011;41837;55.700;37.984;2023-08-20T00:13:43;30.30;;;19.95;;
55931;SDS011;41837;55.700;37.984;2023-08-20T00:16:09;32.20;;;18.48;;
55931;SDS011;41837;55.700;37.984;2023-08-20T00:18:36;38.35;;;20.15;;
55931;SDS011;41837;55.700;37.984;2023-08-20T00:21:04;30.63;;;19.15;;
55931;SDS011;41837;55.700;37.984;2023-08-20T00:23:30;29.10;;;19.13;;
55931;SDS011;41837;55.700;37.984;2023-08-20T00:25:57;31.05;;;19.92;;
55931;SDS011;41837;55.700;37.984;2023-08-20T00:28:24;30.40;;;19.02;;
55931;SDS011;41837;55.700;37.984;2023-08-20T00:30:51;36.03;;;19.98;;
55931;SDS011;41837;55.700;37.984;2023-08-20T00:33:17;34.55;;;20.23;;
55931;SDS011;41837;55.700;37.984;2023-08-20T00:35:43;40.28;;;19.35;;
55931;SDS011;41837;55.700;37.984;2023-08-20T00:38:10;33.00;;;20.00;;
55931;SDS011;41837;55.700;37.984;2023-08-20T00:40:36;31.77;;;19.42;;
55931;SDS011;41837;55.700;37.984;2023-08-20T00:43:02;38.67;;;21.08;;
55931;SDS011;41837;55.700;37.984;2023-08-20T00:45:29;47.30;;;26.35;;
55931;SDS011;41837;55.700;37.984;2023-08-20T00:47:56;51.33;;;26.60;;
55931;SDS011;41837;55.700;37.984;2023-08-20T00:50:22;43.65;;;26.13;;
55931;SDS011;41837;55.700;37.984;2023-08-20T00:52:49;45.38;;;23.55;;
55931;SDS011;41837;55.700;37.984;2023-08-20T00:55:15;36.72;;;24.90;;
55931;SDS011;41837;55.700;37.984;2023-08-20T00:57:41;43.95;;;23.35;;
55931;SDS011;41837;55.700;37.984;2023-08-20T01:00:09;44.20;;;22.15;;
55931;SDS011;41837;55.700;37.984;2023-08-20T01:02:37;40.22;;;21.17;;
55931;SDS011;41837;55.700;37.984;2023-08-20T01:05:06;42.28;;;22.42;;
55931;SDS011;41837;55.700;37.984;2023-08-20T01:07:42;43.20;;;23.35;;
55931;SDS011;41837;55.700;37.984;2023-08-20T01:10:47;44.88;;;22.95;;
55931;SDS011;41837;55.700;37.984;2023-08-20T01:13:18;40.00;;;23.08;;
55931;SDS011;41837;55.700;37.984;2023-08-20T01:15:45;37.42;;;22.92;;
55931;SDS011;41837;55.700;37.984;2023-08-20T01:18:11;37.70;;;21.35;;
55931;SDS011;41837;55.700;37.984;2023-08-20T01:20:41;40.08;;;22.13;;
55931;SDS011;41837;55.700;37.984;2023-08-20T01:28:52;41.63;;;23.70;;
55931;SDS011;41837;55.700;37.984;2023-08-20T01:31:19;43.47;;;25.60;;
55931;SDS011;41837;55.700;37.984;2023-08-20T01:33:46;38.70;;;23.90;;
55931;SDS011;41837;55.700;37.984;2023-08-20T01:36:13;39.55;;;24.48;;
55931;SDS011;41837;55.700;37.984;2023-08-20T01:38:40;41.33;;;24.77;;
55931;SDS011;41837;55.700;37.984;2023-08-20T01:41:30;44.55;;;26.30;;
55931;SDS011;41837;55.700;37.984;2023-08-20T01:43:57;40.63;;;25.60;;
55931;SDS011;41837;55.700;37.984;2023-08-20T01:46:23;43.33;;;26.90;;
55931;SDS011;41837;55.700;37.984;2023-08-20T01:48:50;46.08;;;26.33;;
55931;SDS011;41837;55.700;37.984;2023-08-20T01:51:17;46.33;;;27.08;;
55931;SDS011;41837;55.700;37.984;2023-08-20T01:53:43;41.00;;;25.23;;
55931;SDS011;41837;55.700;37.984;2023-08-20T01:56:13;43.65;;;25.77;;
55931;SDS011;41837;55.700;37.984;2023-08-20T01:58:40;41.00;;;26.38;;
55931;SDS011;41837;55.700;37.984;2023-08-20T02:01:06;47.03;;;26.35;;
55931;SDS011;41837;55.700;37.984;2023-08-20T02:03:32;47.95;;;26.13;;
55931;SDS011;41837;55.700;37.984;2023-08-20T02:05:58;41.95;;;25.75;;
55931;SDS011;41837;55.700;37.984;2023-08-20T02:08:25;46.17;;;27.05;;
55931;SDS011;41837;55.700;37.984;2023-08-20T02:11:01;45.15;;;27.27;;
55931;SDS011;41837;55.700;37.984;2023-08-20T02:13:30;48.35;;;28.55;;
55931;SDS011;41837;55.700;37.984;2023-08-20T02:16:05;47.47;;;26.88;;
55931;SDS011;41837;55.700;37.984;2023-08-20T02:18:52;44.05;;;26.65;;
55931;SDS011;41837;55.700;37.984;2023-08-20T02:21:19;40.22;;;26.77;;
55931;SDS011;41837;55.700;37.984;2023-08-20T02:23:45;45.88;;;27.45;;
55931;SDS011;41837;55.700;37.984;2023-08-20T02:26:11;43.40;;;26.80;;
55931;SDS011;41837;55.700;37.984;2023-08-20T02:28:37;51.30;;;27.05;;
55931;SDS011;41837;55.700;37.984;2023-08-20T02:31:06;56.15;;;28.98;;
55931;SDS011;41837;55.700;37.984;2023-08-20T02:33:33;68.93;;;31.80;;
55931;SDS011;41837;55.700;37.984;2023-08-20T02:36:03;58.83;;;28.60;;
55931;SDS011;41837;55.700;37.984;2023-08-20T02:38:29;40.45;;;26.58;;
55931;SDS011;41837;55.700;37.984;2023-08-20T02:40:56;44.60;;;26.40;;
55931;SDS011;41837;55.700;37.984;2023-08-20T02:43:22;54.47;;;28.65;;
55931;SDS011;41837;55.700;37.984;2023-08-20T02:45:49;49.53;;;28.25;;
55931;SDS011;41837;55.700;37.984;2023-08-20T02:48:18;67.00;;;32.25;;
55931;SDS011;41837;55.700;37.984;2023-08-20T02:50:45;69.15;;;33.13;;
55931;SDS011;41837;55.700;37.984;2023-08-20T02:53:11;65.03;;;32.88;;
55931;SDS011;41837;55.700;37.984;2023-08-20T02:55:38;61.17;;;30.90;;
55931;SDS011;41837;55.700;37.984;2023-08-20T02:58:04;53.15;;;28.70;;
55931;SDS011;41837;55.700;37.984;2023-08-20T03:00:33;50.42;;;27.92;;
55931;SDS011;41837;55.700;37.984;2023-08-20T03:03:00;40.50;;;25.63;;
55931;SDS011;41837;55.700;37.984;2023-08-20T03:05:28;33.67;;;21.55;;
55931;SDS011;41837;55.700;37.984;2023-08-20T03:07:55;32.35;;;20.83;;
55931;SDS011;41837;55.700;37.984;2023-08-20T03:10:21;38.22;;;22.42;;
55931;SDS011;41837;55.700;37.984;2023-08-20T03:12:49;31.23;;;24.02;;
55931;SDS011;41837;55.700;37.984;2023-08-20T03:15:15;36.58;;;24.98;;
55931;SDS011;41837;55.700;37.984;2023-08-20T03:17:42;44.60;;;25.25;;
55931;SDS011;41837;55.700;37.984;2023-08-20T03:20:08;44.90;;;23.95;;
55931;SDS011;41837;55.700;37.984;2023-08-20T03:22:36;43.03;;;22.98;;
55931;SDS011;41837;55.700;37.984;2023-08-20T03:25:03;38.65;;;22.45;;
55931;SDS011;41837;55.700;37.984;2023-08-20T03:27:30;37.50;;;21.23;;
55931;SDS011;41837;55.700;37.984;2023-08-20T03:29:58;37.40;;;23.60;;
55931;SDS011;41837;55.700;37.984;2023-08-20T03:32:24;43.78;;;22.73;;
55931;SDS011;41837;55.700;37.984;2023-08-20T03:34:50;35.13;;;23.27;;
55931;SDS011;41837;55.700;37.984;2023-08-20T03:37:18;39.22;;;23.65;;
55931;SDS011;41837;55.700;37.984;2023-08-20T03:39:45;36.40;;;22.05;;
55931;SDS011;41837;55.700;37.984;2023-08-20T03:42:11;35.22;;;22.40;;
55931;SDS011;41837;55.700;37.984;2023-08-20T03:44:37;33.63;;;22.70;;
55931;SDS011;41837;55.700;37.984;2023-08-20T03:47:04;34.63;;;21.98;;
55931;SDS011;41837;55.700;37.984;2023-08-20T03:49:30;38.72;;;23.27;;
55931;SDS011;41837;55.700;37.984;2023-08-20T03:51:57;36.63;;;23.50;;
55931;SDS011;41837;55.700;37.984;2023-08-20T03:54:23;38.17;;;24.58;;
55931;SDS011;41837;55.700;37.984;2023-08-20T03:56:49;39.50;;;23.52;;
55931;SDS011;41837;55.700;37.984;2023-08-20T03:59:15;36.40;;;23.58;;
55931;SDS011;41837;55.700;37.984;2023-08-20T04:01:41;33.40;;;22.50;;
55931;SDS011;41837;55.700;37.984;2023-08-20T04:04:07;39.90;;;23.40;;
55931;SDS011;41837;55.700;37.984;2023-08-20T04:06:34;47.60;;;22.63;;
55931;SDS011;41837;55.700;37.984;2023-08-20T04:09:01;38.00;;;22.88;;
55931;SDS011;41837;55.700;37.984;2023-08-20T04:11:27;35.67;;;23.40;;
55931;SDS011;41837;55.700;37.984;2023-08-20T04:13:53;39.88;;;23.38;;
55931;SDS011;41837;55.700;37.984;2023-08-20T04:16:19;37.30;;;22.70;;
55931;SDS011;41837;55.700;37.984;2023-08-20T04:18:46;35.67;;;24.17;;
55931;SDS011;41837;55.700;37.984;2023-08-20T04:21:17;35.58;;;24.02;;
55931;SDS011;41837;55.700;37.984;2023-08-20T04:23:44;34.40;;;24.00;;
55931;SDS011;41837;55.700;37.984;2023-08-20T04:26:10;35.20;;;24.80;;
55931;SDS011;41837;55.700;37.984;2023-08-20T04:28:36;37.83;;;25.42;;
55931;SDS011;41837;55.700;37.984;2023-08-20T04:31:04;40.70;;;25.92;;
55931;SDS011;41837;55.700;37.984;2023-08-20T04:33:45;40.35;;;28.88;;
55931;SDS011;41837;55.700;37.984;2023-08-20T04:36:24;38.95;;;27.23;;
55931;SDS011;41837;55.700;37.984;2023-08-20T04:38:50;48.15;;;29.27;;
55931;SDS011;41837;55.700;37.984;2023-08-20T04:41:17;52.90;;;32.58;;
55931;SDS011;41837;55.700;37.984;2023-08-20T04:43:43;54.17;;;33.00;;
55931;SDS011;41837;55.700;37.984;2023-08-20T04:46:09;45.08;;;31.23;;
55931;SDS011;41837;55.700;37.984;2023-08-20T04:48:36;47.83;;;32.45;;
55931;SDS011;41837;55.700;37.984;2023-08-20T04:51:02;49.50;;;32.83;;
55931;SDS011;41837;55.700;37.984;2023-08-20T04:53:29;51.20;;;32.95;;
55931;SDS011;41837;55.700;37.984;2023-08-20T04:55:56;45.38;;;30.13;;
55931;SDS011;41837;55.700;37.984;2023-08-20T04:58:24;52.60;;;34.35;;
55931;SDS011;41837;55.700;37.984;2023-08-20T05:00:50;48.05;;;32.83;;
55931;SDS011;41837;55.700;37.984;2023-08-20T05:03:17;50.47;;;34.33;;
55931;SDS011;41837;55.700;37.984;2023-08-20T05:05:48;49.08;;;32.35;;
55931;SDS011;41837;55.700;37.984;2023-08-20T05:08:15;52.20;;;35.08;;
55931;SDS011;41837;55.700;37.984;2023-08-20T05:10:42;69.90;;;36.53;;
55931;SDS011;41837;55.700;37.984;2023-08-20T05:13:11;55.22;;;34.92;;
55931;SDS011;41837;55.700;37.984;2023-08-20T05:15:37;56.30;;;33.97;;
55931;SDS011;41837;55.700;37.984;2023-08-20T05:18:04;71.50;;;44.15;;
55931;SDS011;41837;55.700;37.984;2023-08-20T05:20:30;108.65;;;83.63;;
55931;SDS011;41837;55.700;37.984;2023-08-20T05:22:57;106.78;;;83.25;;
55931;SDS011;41837;55.700;37.984;2023-08-20T05:25:25;70.63;;;53.33;;
55931;SDS011;41837;55.700;37.984;2023-08-20T05:27:51;48.17;;;33.72;;
55931;SDS011;41837;55.700;37.984;2023-08-20T05:30:17;38.10;;;26.67;;
55931;SDS011;41837;55.700;37.984;2023-08-20T05:32:44;35.85;;;24.95;;
55931;SDS011;41837;55.700;37.984;2023-08-20T05:35:11;33.58;;;22.77;;
55931;SDS011;41837;55.700;37.984;2023-08-20T05:37:39;27.50;;;21.42;;
55931;SDS011;41837;55.700;37.984;2023-08-20T05:40:05;29.15;;;20.23;;
55931;SDS011;41837;55.700;37.984;2023-08-20T05:42:34;28.92;;;18.67;;
55931;SDS011;41837;55.700;37.984;2023-08-20T05:45:05;26.58;;;18.88;;
55931;SDS011;41837;55.700;37.984;2023-08-20T05:47:32;27.45;;;15.75;;
55931;SDS011;41837;55.700;37.984;2023-08-20T05:49:59;22.63;;;16.35;;
55931;SDS011;41837;55.700;37.984;2023-08-20T05:52:26;21.65;;;15.30;;
55931;SDS011;41837;55.700;37.984;2023-08-20T05:54:52;18.90;;;14.10;;
55931;SDS011;41837;55.700;37.984;2023-08-20T05:57:19;19.52;;;13.45;;
55931;SDS011;41837;55.700;37.984;2023-08-20T05:59:45;19.50;;;12.90;;
55931;SDS011;41837;55.700;37.984;2023-08-20T06:02:16;23.02;;;12.43;;
55931;SDS011;41837;55.700;37.984;2023-08-20T06:04:45;17.17;;;12.70;;
55931;SDS011;41837;55.700;37.984;2023-08-20T06:07:11;14.93;;;12.00;;
55931;SDS011;41837;55.700;37.984;2023-08-20T06:09:38;23.88;;;12.77;;
55931;SDS011;41837;55.700;37.984;2023-08-20T06:12:05;20.88;;;12.15;;
55931;SDS011;41837;55.700;37.984;2023-08-20T06:14:32;16.42;;;11.82;;
55931;SDS011;41837;55.700;37.984;2023-08-20T06:16:58;20.17;;;11.57;;
55931;SDS011;41837;55.700;37.984;2023-08-20T06:19:25;19.40;;;12.00;;
55931;SDS011;41837;55.700;37.984;2023-08-20T06:21:51;20.83;;;12.07;;
55931;SDS011;41837;55.700;37.984;2023-08-20T06:24:18;22.67;;;12.45;;
55931;SDS011;41837;55.700;37.984;2023-08-20T06:26:44;18.65;;;12.38;;
55931;SDS011;41837;55.700;37.984;2023-08-20T06:29:11;16.40;;;12.27;;
55931;SDS011;41837;55.700;37.984;2023-08-20T06:31:38;17.50;;;12.93;;
55931;SDS011;41837;55.700;37.984;2023-08-20T06:34:04;20.42;;;14.77;;
55931;SDS011;41837;55.700;37.984;2023-08-20T06:36:30;20.23;;;14.55;;
55931;SDS011;41837;55.700;37.984;2023-08-20T06:38:57;19.63;;;13.70;;
55931;SDS011;41837;55.700;37.984;2023-08-20T06:41:23;22.27;;;14.25;;
55931;SDS011;41837;55.700;37.984;2023-08-20T06:43:50;20.60;;;13.80;;
55931;SDS011;41837;55.700;37.984;2023-08-20T06:46:16;17.60;;;12.13;;
55931;SDS011;41837;55.700;37.984;2023-08-20T06:48:42;13.88;;;9.93;;
55931;SDS011;41837;55.700;37.984;2023-08-20T06:51:12;14.25;;;10.48;;
55931;SDS011;41837;55.700;37.984;2023-08-20T06:53:41;14.75;;;9.88;;
55931;SDS011;41837;55.700;37.984;2023-08-20T06:56:08;13.20;;;9.52;;
55931;SDS011;41837;55.700;37.984;2023-08-20T06:58:35;9.40;;;8.32;;
55931;SDS011;41837;55.700;37.984;2023-08-20T07:01:02;13.75;;;7.90;;
55931;SDS011;41837;55.700;37.984;2023-08-20T07:03:37;10.00;;;7.45;;
55931;SDS011;41837;55.700;37.984;2023-08-20T07:06:07;12.45;;;7.30;;
55931;SDS011;41837;55.700;37.984;2023-08-20T07:08:37;9.27;;;6.45;;
55931;SDS011;41837;55.700;37.984;2023-08-20T07:11:07;11.02;;;7.00;;
55931;SDS011;41837;55.700;37.984;2023-08-20T07:13:34;11.45;;;7.88;;
55931;SDS011;41837;55.700;37.984;2023-08-20T07:16:00;11.23;;;6.93;;
55931;SDS011;41837;55.700;37.984;2023-08-20T07:18:26;12.70;;;8.20;;
55931;SDS011;41837;55.700;37.984;2023-08-20T07:20:52;9.18;;;7.78;;
55931;SDS011;41837;55.700;37.984;2023-08-20T07:23:18;17.80;;;10.02;;
55931;SDS011;41837;55.700;37.984;2023-08-20T07:25:45;13.65;;;9.15;;
55931;SDS011;41837;55.700;37.984;2023-08-20T07:28:12;12.18;;;9.52;;
55931;SDS011;41837;55.700;37.984;2023-08-20T07:30:39;11.45;;;9.20;;
55931;SDS011;41837;55.700;37.984;2023-08-20T07:33:06;12.57;;;9.15;;
55931;SDS011;41837;55.700;37.984;2023-08-20T07:35:33;16.25;;;9.60;;
55931;SDS011;41837;55.700;37.984;2023-08-20T07:38:01;14.23;;;9.30;;
55931;SDS011;41837;55.700;37.984;2023-08-20T07:40:27;10.55;;;7.78;;
55931;SDS011;41837;55.700;37.984;2023-08-20T07:42:54;11.52;;;7.55;;
55931;SDS011;41837;55.700;37.984;2023-08-20T07:45:20;27.25;;;15.57;;
55931;SDS011;41837;55.700;37.984;2023-08-20T07:47:46;21.58;;;12.40;;
55931;SDS011;41837;55.700;37.984;2023-08-20T07:50:13;22.38;;;11.77;;
55931;SDS011;41837;55.700;37.984;2023-08-20T07:52:39;17.25;;;11.80;;
55931;SDS011;41837;55.700;37.984;2023-08-20T07:55:06;17.50;;;11.07;;
55931;SDS011;41837;55.700;37.984;2023-08-20T07:57:33;15.65;;;11.00;;
55931;SDS011;41837;55.700;37.984;2023-08-20T08:00:00;15.50;;;10.10;;
55931;SDS011;41837;55.700;37.984;2023-08-20T08:02:37;15.95;;;10.63;;
55931;SDS011;41837;55.700;37.984;2023-08-20T08:05:03;23.20;;;11.25;;
55931;SDS011;41837;55.700;37.984;2023-08-20T08:07:30;17.00;;;11.05;;
55931;SDS011;41837;55.700;37.984;2023-08-20T08:09:57;16.20;;;11.20;;
55931;SDS011;41837;55.700;37.984;2023-08-20T08:12:23;16.70;;;11.45;;
55931;SDS011;41837;55.700;37.984;2023-08-20T08:14:49;21.35;;;11.90;;
55931;SDS011;41837;55.700;37.984;2023-08-20T08:17:16;19.17;;;9.80;;
55931;SDS011;41837;55.700;37.984;2023-08-20T08:19:42;16.17;;;9.85;;
55931;SDS011;41837;55.700;37.984;2023-08-20T08:22:08;14.38;;;10.40;;
55931;SDS011;41837;55.700;37.984;2023-08-20T08:24:37;15.52;;;10.05;;
55931;SDS011;41837;55.700;37.984;2023-08-20T08:27:03;14.98;;;10.80;;
55931;SDS011;41837;55.700;37.984;2023-08-20T08:29:30;16.30;;;10.15;;
55931;SDS011;41837;55.700;37.984;2023-08-20T08:31:56;15.43;;;9.88;;
55931;SDS011;41837;55.700;37.984;2023-08-20T08:34:22;20.20;;;9.75;;
55931;SDS011;41837;55.700;37.984;2023-08-20T08:36:48;15.60;;;9.25;;
55931;SDS011;41837;55.700;37.984;2023-08-20T08:39:15;14.95;;;10.20;;
55931;SDS011;41837;55.700;37.984;2023-08-20T08:41:41;14.13;;;10.13;;
55931;SDS011;41837;55.700;37.984;2023-08-20T08:44:09;20.10;;;9.88;;
55931;SDS011;41837;55.700;37.984;2023-08-20T08:46:37;11.02;;;7.88;;
55931;SDS011;41837;55.700;37.984;2023-08-20T08:49:04;12.10;;;7.97;;
55931;SDS011;41837;55.700;37.984;2023-08-20T08:51:31;11.50;;;7.90;;
55931;SDS011;41837;55.700;37.984;2023-08-20T08:53:58;13.48;;;7.45;;
55931;SDS011;41837;55.700;37.984;2023-08-20T08:56:25;10.13;;;7.10;;
55931;SDS011;41837;55.700;37.984;2023-08-20T08:58:52;12.55;;;8.38;;
55931;SDS011;41837;55.700;37.984;2023-08-20T09:01:19;12.35;;;7.32;;
55931;SDS011;41837;55.700;37.984;2023-08-20T09:03:46;11.40;;;8.23;;
55931;SDS011;41837;55.700;37.984;2023-08-20T09:06:13;11.02;;;7.40;;
55931;SDS011;41837;55.700;37.984;2023-08-20T09:08:39;13.07;;;7.13;;
55931;SDS011;41837;55.700;37.984;2023-08-20T09:11:05;12.23;;;7.65;;
55931;SDS011;41837;55.700;37.984;2023-08-20T09:16:06;12.38;;;6.43;;
55931;SDS011;41837;55.700;37.984;2023-08-20T09:18:38;8.18;;;5.90;;
55931;SDS011;41837;55.700;37.984;2023-08-20T09:21:15;13.10;;;6.40;;
55931;SDS011;41837;55.700;37.984;2023-08-20T09:23:45;9.27;;;5.20;;
55931;SDS011;41837;55.700;37.984;2023-08-20T09:26:11;8.10;;;4.97;;
55931;SDS011;41837;55.700;37.984;2023-08-20T09:28:43;11.82;;;5.65;;
55931;SDS011;41837;55.700;37.984;2023-08-20T09:31:12;6.47;;;5.57;;
55931;SDS011;41837;55.700;37.984;2023-08-20T09:33:49;7.80;;;4.85;;
55931;SDS011;41837;55.700;37.984;2023-08-20T09:36:18;9.30;;;5.10;;
55931;SDS011;41837;55.700;37.984;2023-08-20T09:38:56;10.93;;;4.43;;
55931;SDS011;41837;55.700;37.984;2023-08-20T09:41:25;8.05;;;4.50;;
55931;SDS011;41837;55.700;37.984;2023-08-20T09:43:54;8.38;;;4.75;;
55931;SDS011;41837;55.700;37.984;2023-08-20T09:46:26;7.13;;;4.88;;
55931;SDS011;41837;55.700;37.984;2023-08-20T09:49:06;6.90;;;4.15;;
55931;SDS011;41837;55.700;37.984;2023-08-20T09:51:36;6.10;;;4.55;;
55931;SDS011;41837;55.700;37.984;2023-08-20T09:54:12;7.32;;;5.13;;
55931;SDS011;41837;55.700;37.984;2023-08-20T09:56:44;8.10;;;4.90;;
55931;SDS011;41837;55.700;37.984;2023-08-20T09:59:16;11.80;;;5.00;;
55931;SDS011;41837;55.700;37.984;2023-08-20T10:01:43;7.07;;;5.20;;
55931;SDS011;41837;55.700;37.984;2023-08-20T10:04:10;14.65;;;5.20;;
55931;SDS011;41837;55.700;37.984;2023-08-20T10:06:37;8.57;;;5.25;;
55931;SDS011;41837;55.700;37.984;2023-08-20T10:09:05;12.90;;;5.30;;
55931;SDS011;41837;55.700;37.984;2023-08-20T10:11:32;11.15;;;5.03;;
55931;SDS011;41837;55.700;37.984;2023-08-20T10:13:59;8.70;;;4.90;;
55931;SDS011;41837;55.700;37.984;2023-08-20T10:16:27;12.13;;;5.32;;
55931;SDS011;41837;55.700;37.984;2023-08-20T10:18:53;7.75;;;4.50;;
55931;SDS011;41837;55.700;37.984;2023-08-20T10:21:24;6.22;;;4.25;;
55931;SDS011;41837;55.700;37.984;2023-08-20T10:23:51;5.50;;;4.00;;
55931;SDS011;41837;55.700;37.984;2023-08-20T10:26:18;5.43;;;4.03;;
55931;SDS011;41837;55.700;37.984;2023-08-20T10:28:50;9.18;;;4.50;;
55931;SDS011;41837;55.700;37.984;2023-08-20T10:31:17;5.85;;;4.30;;
55931;SDS011;41837;55.700;37.984;2023-08-20T10:36:14;6.35;;;4.85;;
55931;SDS011;41837;55.700;37.984;2023-08-20T10:38:46;7.80;;;4.50;;
55931;SDS011;41837;55.700;37.984;2023-08-20T10:41:14;8.55;;;5.13;;
55931;SDS011;41837;55.700;37.984;2023-08-20T10:43:49;9.65;;;4.90;;
55931;SDS011;41837;55.700;37.984;2023-08-20T10:46:20;14.27;;;4.95;;
55931;SDS011;41837;55.700;37.984;2023-08-20T10:48:48;7.70;;;5.03;;
55931;SDS011;41837;55.700;37.984;2023-08-20T10:51:24;6.18;;;4.47;;
55931;SDS011;41837;55.700;37.984;2023-08-20T10:56:37;8.00;;;4.80;;
55931;SDS011;41837;55.700;37.984;2023-08-20T10:59:07;8.55;;;4.68;;
55931;SDS011;41837;55.700;37.984;2023-08-20T11:01:34;13.07;;;5.05;;
55931;SDS011;41837;55.700;37.984;2023-08-20T11:04:00;8.68;;;5.35;;
55931;SDS011;41837;55.700;37.984;2023-08-20T11:06:31;6.35;;;5.18;;
55931;SDS011;41837;55.700;37.984;2023-08-20T11:09:00;8.80;;;5.30;;
55931;SDS011;41837;55.700;37.984;2023-08-20T11:11:31;7.13;;;4.82;;
55931;SDS011;41837;55.700;37.984;2023-08-20T11:14:05;7.50;;;4.78;;
55931;SDS011;41837;55.700;37.984;2023-08-20T11:16:35;6.22;;;5.18;;
55931;SDS011;41837;55.700;37.984;2023-08-20T11:19:03;9.73;;;5.55;;
55931;SDS011;41837;55.700;37.984;2023-08-20T11:21:35;6.82;;;5.05;;
55931;SDS011;41837;55.700;37.984;2023-08-20T11:24:02;6.75;;;5.75;;
55931;SDS011;41837;55.700;37.984;2023-08-20T11:26:30;7.80;;;4.75;;
55931;SDS011;41837;55.700;37.984;2023-08-20T11:28:57;6.63;;;4.95;;
55931;SDS011;41837;55.700;37.984;2023-08-20T11:31:23;11.27;;;5.57;;
55931;SDS011;41837;55.700;37.984;2023-08-20T11:33:52;11.80;;;6.20;;
55931;SDS011;41837;55.700;37.984;2023-08-20T11:36:19;9.30;;;5.07;;
55931;SDS011;41837;55.700;37.984;2023-08-20T11:38:53;7.68;;;5.20;;
55931;SDS011;41837;55.700;37.984;2023-08-20T11:41:21;7.60;;;5.22;;
55931;SDS011;41837;55.700;37.984;2023-08-20T11:43:57;8.30;;;5.15;;
55931;SDS011;41837;55.700;37.984;2023-08-20T11:46:24;11.25;;;5.22;;
55931;SDS011;41837;55.700;37.984;2023-08-20T11:49:03;8.18;;;5.60;;
55931;SDS011;41837;55.700;37.984;2023-08-20T11:51:30;12.27;;;5.70;;
55931;SDS011;41837;55.700;37.984;2023-08-20T11:54:07;8.80;;;5.55;;
55931;SDS011;41837;55.700;37.984;2023-08-20T11:56:43;10.88;;;5.50;;
55931;SDS011;41837;55.700;37.984;2023-08-20T11:59:11;9.07;;;5.38;;
55931;SDS011;41837;55.700;37.984;2023-08-20T12:01:38;9.05;;;5.40;;
55931;SDS011;41837;55.700;37.984;2023-08-20T12:04:06;9.65;;;5.57;;
55931;SDS011;41837;55.700;37.984;2023-08-20T12:06:35;7.10;;;5.30;;
55931;SDS011;41837;55.700;37.984;2023-08-20T12:09:19;8.70;;;4.95;;
55931;SDS011;41837;55.700;37.984;2023-08-20T12:11:50;8.00;;;5.47;;
55931;SDS011;41837;55.700;37.984;2023-08-20T12:14:18;20.52;;;15.05;;
55931;SDS011;41837;55.700;37.984;2023-08-20T12:16:46;28.77;;;16.58;;
55931;SDS011;41837;55.700;37.984;2023-08-20T12:19:16;13.57;;;6.75;;
55931;SDS011;41837;55.700;37.984;2023-08-20T12:21:42;13.05;;;6.28;;
55931;SDS011;41837;55.700;37.984;2023-08-20T12:24:13;16.52;;;6.18;;
55931;SDS011;41837;55.700;37.984;2023-08-20T12:26:40;13.63;;;7.07;;
55931;SDS011;41837;55.700;37.984;2023-08-20T12:29:07;9.57;;;5.97;;
55931;SDS011;41837;55.700;37.984;2023-08-20T12:31:34;11.35;;;6.90;;
55931;SDS011;41837;55.700;37.984;2023-08-20T12:34:01;17.95;;;5.93;;
55931;SDS011;41837;55.700;37.984;2023-08-20T12:36:28;20.40;;;5.60;;
55931;SDS011;41837;55.700;37.984;2023-08-20T12:38:55;15.25;;;5.22;;
55931;SDS011;41837;55.700;37.984;2023-08-20T12:41:22;11.70;;;4.60;;
55931;SDS011;41837;55.700;37.984;2023-08-20T12:43:48;12.30;;;4.43;;
55931;SDS011;41837;55.700;37.984;2023-08-20T12:46:15;13.10;;;4.68;;
55931;SDS011;41837;55.700;37.984;2023-08-20T12:48:42;14.88;;;3.95;;
55931;SDS011;41837;55.700;37.984;2023-08-20T12:51:09;7.68;;;3.95;;
55931;SDS011;41837;55.700;37.984;2023-08-20T12:53:39;10.10;;;3.22;;
55931;SDS011;41837;55.700;37.984;2023-08-20T12:56:05;11.85;;;3.40;;
55931;SDS011;41837;55.700;37.984;2023-08-20T12:58:31;11.90;;;3.60;;
55931;SDS011;41837;55.700;37.984;2023-08-20T13:00:58;6.25;;;3.08;;
55931;SDS011;41837;55.700;37.984;2023-08-20T13:03:27;5.82;;;2.40;;
55931;SDS011;41837;55.700;37.984;2023-08-20T13:05:54;7.93;;;2.35;;
55931;SDS011;41837;55.700;37.984;2023-08-20T13:08:23;7.90;;;2.70;;
55931;SDS011;41837;55.700;37.984;2023-08-20T13:10:53;6.80;;;2.75;;
55931;SDS011;41837;55.700;37.984;2023-08-20T13:13:22;9.18;;;3.25;;
55931;SDS011;41837;55.700;37.984;2023-08-20T13:15:50;6.30;;;3.38;;
55931;SDS011;41837;55.700;37.984;2023-08-20T13:18:18;8.57;;;4.30;;
55931;SDS011;41837;55.700;37.984;2023-08-20T13:20:52;7.97;;;3.80;;
55931;SDS011;41837;55.700;37.984;2023-08-20T13:23:19;10.93;;;4.45;;
55931;SDS011;41837;55.700;37.984;2023-08-20T13:25:49;20.85;;;7.63;;
55931;SDS011;41837;55.700;37.984;2023-08-20T13:28:16;16.80;;;7.30;;
55931;SDS011;41837;55.700;37.984;2023-08-20T13:30:43;17.20;;;8.30;;
55931;SDS011;41837;55.700;37.984;2023-08-20T13:33:10;12.80;;;7.80;;
55931;SDS011;41837;55.700;37.984;2023-08-20T13:35:38;10.38;;;6.55;;
55931;SDS011;41837;55.700;37.984;2023-08-20T13:38:05;8.65;;;4.63;;
55931;SDS011;41837;55.700;37.984;2023-08-20T13:40:31;12.27;;;5.05;;
55931;SDS011;41837;55.700;37.984;2023-08-20T13:42:58;11.32;;;4.85;;
55931;SDS011;41837;55.700;37.984;2023-08-20T13:45:25;10.43;;;5.38;;
55931;SDS011;41837;55.700;37.984;2023-08-20T13:47:52;7.72;;;4.50;;
55931;SDS011;41837;55.700;37.984;2023-08-20T13:50:19;9.77;;;4.90;;
55931;SDS011;41837;55.700;37.984;2023-08-20T13:52:46;10.95;;;4.70;;
55931;SDS011;41837;55.700;37.984;2023-08-20T13:55:12;8.65;;;4.75;;
55931;SDS011;41837;55.700;37.984;2023-08-20T13:57:39;9.52;;;4.28;;
55931;SDS011;41837;55.700;37.984;2023-08-20T14:00:06;10.65;;;4.57;;
55931;SDS011;41837;55.700;37.984;2023-08-20T14:02:35;8.90;;;4.50;;
55931;SDS011;41837;55.700;37.984;2023-08-20T14:05:02;6.55;;;4.13;;
55931;SDS011;41837;55.700;37.984;2023-08-20T14:07:30;7.57;;;4.70;;
55931;SDS011;41837;55.700;37.984;2023-08-20T14:09:57;7.45;;;5.03;;
55931;SDS011;41837;55.700;37.984;2023-08-20T14:12:23;8.55;;;5.15;;
55931;SDS011;41837;55.700;37.984;2023-08-20T14:14:50;9.90;;;4.82;;
55931;SDS011;41837;55.700;37.984;2023-08-20T14:17:17;12.57;;;4.93;;
55931;SDS011;41837;55.700;37.984;2023-08-20T14:19:43;9.63;;;5.45;;
55931;SDS011;41837;55.700;37.984;2023-08-20T14:22:11;9.32;;;4.97;;
55931;SDS011;41837;55.700;37.984;2023-08-20T14:24:37;17.30;;;5.60;;
55931;SDS011;41837;55.700;37.984;2023-08-20T14:27:03;11.82;;;6.00;;
55931;SDS011;41837;55.700;37.984;2023-08-20T14:29:34;10.95;;;7.25;;
55931;SDS011;41837;55.700;37.984;2023-08-20T14:32:01;14.65;;;6.90;;
55931;SDS011;41837;55.700;37.984;2023-08-20T14:34:27;18.33;;;11.60;;
55931;SDS011;41837;55.700;37.984;2023-08-20T14:36:54;21.85;;;15.80;;